Time;durP1;ratioP1;P1;durP2;ratioP2;P2;SDS_P1;SDS_P2;PMS_P1;PMS_P2;Temp;Humidity;BMP_temperature;BMP_pressure;BME280_temperature;BME280_humidity;BME280_pressure;Samples;Min_cycle;Max_cycle;Signal;HPM_P1;HPM_P2
2022/11/16 00:02:16;;;;;;;;;;;14.90;75.80;;;;;;5024382;28;20498;-45
2022/11/16 00:04:58;;;;;;;4.53;4.13;;;14.90;76.30;;;;;;5032322;28;19921;-46
2022/11/16 00:07:32;;;;;;;5.72;4.40;;;14.90;75.70;;;;;;5029135;28;20064;-45
2022/11/16 00:10:14;;;;;;;7.38;4.68;;;14.90;75.70;;;;;;5024259;28;20125;-45
2022/11/16 00:12:46;;;;;;;4.47;4.07;;;14.90;75.60;;;;;;5026853;28;20523;-45
2022/11/16 00:15:25;;;;;;;7.35;5.35;;;14.90;75.80;;;;;;5032223;28;20710;-46
2022/11/16 00:17:57;;;;;;;7.32;4.60;;;14.90;75.80;;;;;;5024462;28;20112;-46
2022/11/16 00:20:32;;;;;;;5.07;4.43;;;14.90;76.00;;;;;;5013341;28;20406;-45
2022/11/16 00:23:02;;;;;;;5.55;4.55;;;14.90;76.10;;;;;;5012191;28;20056;-45
2022/11/16 00:25:37;;;;;;;5.10;4.60;;;14.80;76.00;;;;;;5017971;28;20037;-45
2022/11/16 00:28:23;;;;;;;5.38;4.32;;;14.90;76.20;;;;;;5021086;28;20107;-46
2022/11/16 00:31:09;;;;;;;5.95;4.78;;;14.90;76.20;;;;;;5027481;28;20045;-46
2022/11/16 00:33:49;;;;;;;7.13;4.90;;;14.90;76.30;;;;;;5030559;28;20038;-46
2022/11/16 00:36:47;;;;;;;5.55;4.70;;;14.90;76.20;;;;;;4983087;28;20061;-46
2022/11/16 00:39:20;;;;;;;7.43;5.25;;;14.90;76.20;;;;;;5023412;28;20640;-46
2022/11/16 00:42:07;;;;;;;5.55;4.65;;;14.90;76.10;;;;;;5047374;28;20045;-45
2022/11/16 00:44:44;;;;;;;6.72;4.53;;;14.90;76.30;;;;;;5024053;28;20052;-45
2022/11/16 00:47:18;;;;;;;5.22;4.63;;;14.80;76.10;;;;;;5016051;28;20046;-45
2022/11/16 00:49:49;;;;;;;4.60;4.15;;;14.90;76.30;;;;;;5022469;28;20091;-46
2022/11/16 00:52:35;;;;;;;5.10;4.20;;;14.90;76.30;;;;;;5030052;28;20491;-47
2022/11/16 00:55:38;;;;;;;5.80;4.15;;;14.90;76.30;;;;;;5007306;28;20550;-46
2022/11/16 00:58:18;;;;;;;4.82;4.43;;;14.90;76.90;;;;;;5018571;28;20077;-46
2022/11/16 01:01:05;;;;;;;6.43;4.15;;;14.90;76.40;;;;;;5030342;28;20049;-45
2022/11/16 01:03:37;;;;;;;4.55;4.10;;;14.80;76.30;;;;;;5013538;28;20050;-46
2022/11/16 01:06:13;;;;;;;5.65;5.13;;;14.80;76.40;;;;;;5021977;28;20045;-45
2022/11/16 01:08:54;;;;;;;6.22;4.57;;;14.80;76.40;;;;;;5027543;28;20045;-47
2022/11/16 01:14:12;;;;;;;5.43;4.82;;;14.80;76.50;;;;;;5004338;28;20116;-46
2022/11/16 01:16:43;;;;;;;4.85;4.15;;;14.80;76.50;;;;;;5018408;28;20133;-46
2022/11/16 01:19:17;;;;;;;4.78;4.38;;;14.80;76.60;;;;;;5030514;28;20124;-46
2022/11/16 01:21:47;;;;;;;5.90;4.07;;;14.80;76.60;;;;;;5037544;28;20149;-48
2022/11/16 01:24:18;;;;;;;3.90;3.50;;;14.80;76.70;;;;;;5021981;28;20501;-47
2022/11/16 01:26:49;;;;;;;4.53;3.92;;;14.80;76.90;;;;;;5026489;28;20052;-45
2022/11/16 01:29:20;;;;;;;4.60;3.67;;;14.80;76.80;;;;;;5046233;28;20516;-46
2022/11/16 01:32:00;;;;;;;5.82;3.60;;;14.80;76.80;;;;;;5000262;28;20047;-47
2022/11/16 01:34:35;;;;;;;4.07;3.67;;;14.80;77.10;;;;;;5011673;28;20034;-47
2022/11/16 01:37:17;;;;;;;5.47;4.00;;;14.80;76.90;;;;;;5030607;28;20052;-46
2022/11/16 01:40:02;;;;;;;4.72;4.03;;;14.80;76.80;;;;;;5024198;28;20065;-46
2022/11/16 01:42:39;;;;;;;3.63;3.25;;;14.80;76.80;;;;;;5041034;28;20076;-46
2022/11/16 01:45:22;;;;;;;4.10;3.70;;;14.80;77.00;;;;;;5028944;28;20056;-44
2022/11/16 01:48:06;;;;;;;4.25;3.80;;;14.90;77.10;;;;;;5015909;28;20069;-45
2022/11/16 01:50:48;;;;;;;5.13;4.03;;;14.80;76.80;;;;;;5003956;28;20081;-46
2022/11/16 01:53:28;;;;;;;4.55;4.10;;;14.80;76.70;;;;;;5014292;28;20100;-47
2022/11/16 01:56:02;;;;;;;4.45;3.80;;;14.90;77.00;;;;;;5009872;28;20097;-47
2022/11/16 01:58:51;;;;;;;3.70;3.33;;;14.80;76.70;;;;;;5017268;28;20064;-47
2022/11/16 02:01:29;;;;;;;5.82;4.32;;;14.80;76.60;;;;;;5027833;28;20042;-46
2022/11/16 02:04:03;;;;;;;5.10;4.03;;;14.80;76.70;;;;;;5042887;28;20052;-47
2022/11/16 02:06:58;;;;;;;4.13;3.72;;;14.80;76.80;;;;;;5041363;28;20054;-47
2022/11/16 02:10:01;;;;;;;3.72;3.42;;;14.80;77.10;;;;;;5017870;28;20401;-46
2022/11/16 02:13:02;;;;;;;4.28;3.88;;;14.80;76.90;;;;;;5032246;28;20038;-47
2022/11/16 02:15:49;;;;;;;5.00;3.67;;;14.90;77.10;;;;;;4990135;28;20498;-46
2022/11/16 02:18:33;;;;;;;7.63;3.78;;;14.80;76.70;;;;;;5003196;28;20029;-45
2022/11/16 02:21:53;;;;;;;5.78;4.05;;;14.80;76.80;;;;;;5022265;28;20509;-46
2022/11/16 02:24:41;;;;;;;3.92;3.53;;;14.80;77.20;;;;;;5008952;28;20499;-48
2022/11/16 02:27:34;;;;;;;3.72;3.38;;;14.80;76.90;;;;;;5007290;28;20058;-45
2022/11/16 02:30:19;;;;;;;5.78;3.85;;;14.90;76.80;;;;;;5013658;28;20034;-47
2022/11/16 02:33:01;;;;;;;4.05;3.25;;;14.80;76.60;;;;;;5014698;28;20050;-45
2022/11/16 02:35:59;;;;;;;4.03;3.25;;;14.80;76.90;;;;;;5008964;28;20045;-47
2022/11/16 02:38:39;;;;;;;5.03;3.42;;;14.90;77.20;;;;;;5020827;28;20045;-48
2022/11/16 02:41:21;;;;;;;3.78;3.20;;;14.80;76.90;;;;;;5019883;28;20049;-46
2022/11/16 02:44:25;;;;;;;4.68;3.38;;;14.90;77.20;;;;;;5027614;28;20604;-46
2022/11/16 02:47:03;;;;;;;6.53;3.28;;;14.90;77.30;;;;;;5006848;28;20046;-46
2022/11/16 02:49:41;;;;;;;3.83;3.20;;;14.90;76.90;;;;;;5013039;28;20046;-46
2022/11/16 02:52:14;;;;;;;3.75;3.35;;;14.80;76.90;;;;;;5012883;28;20113;-46
2022/11/16 02:54:44;;;;;;;5.68;3.25;;;14.90;77.00;;;;;;5009091;28;20046;-48
2022/11/16 02:57:30;;;;;;;3.53;2.88;;;14.90;77.00;;;;;;5033539;28;20088;-47
2022/11/16 03:00:04;;;;;;;3.58;3.15;;;14.90;77.20;;;;;;5015871;28;20093;-47
2022/11/16 03:02:59;;;;;;;5.57;3.88;;;14.90;77.10;;;;;;5029641;28;20042;-46
2022/11/16 03:05:57;;;;;;;5.38;3.40;;;14.90;77.40;;;;;;5026561;28;20037;-46
2022/11/16 03:08:51;;;;;;;3.65;3.22;;;14.90;77.30;;;;;;5026649;28;20050;-45
2022/11/16 03:15:12;;;;;;;3.67;3.00;;;14.90;76.80;;;;;;5004014;28;20655;-47
2022/11/16 03:17:47;;;;;;;3.45;3.15;;;14.90;77.00;;;;;;5015644;28;20042;-47
2022/11/16 03:20:34;;;;;;;3.90;3.45;;;14.90;76.80;;;;;;5031752;28;20548;-47
2022/11/16 03:23:08;;;;;;;3.40;3.05;;;14.90;77.00;;;;;;5021496;28;20049;-46
2022/11/16 03:25:58;;;;;;;3.58;3.28;;;14.90;76.90;;;;;;5020415;28;20437;-46
2022/11/16 03:28:40;;;;;;;3.53;3.22;;;14.90;77.10;;;;;;5013071;28;20502;-45
2022/11/16 03:31:30;;;;;;;3.75;3.45;;;14.90;77.00;;;;;;5022716;28;20632;-47
2022/11/16 03:34:19;;;;;;;6.57;3.50;;;14.90;76.90;;;;;;5037947;28;20041;-47
2022/11/16 03:37:00;;;;;;;4.00;3.53;;;14.90;77.10;;;;;;5016865;28;20158;-48
2022/11/16 03:39:45;;;;;;;4.05;3.65;;;14.90;77.00;;;;;;4993962;28;20380;-45
2022/11/16 03:42:35;;;;;;;3.72;3.40;;;14.90;77.00;;;;;;5025896;28;20041;-46
2022/11/16 03:45:21;;;;;;;3.58;3.28;;;14.90;76.80;;;;;;5017138;28;20050;-46
2022/11/16 03:47:54;;;;;;;2.95;2.75;;;14.90;76.80;;;;;;5023842;28;20049;-46
2022/11/16 03:50:35;;;;;;;4.00;3.45;;;14.80;76.90;;;;;;5026397;28;20076;-49
2022/11/16 03:53:07;;;;;;;3.70;3.28;;;14.80;77.00;;;;;;5030131;28;20046;-46
2022/11/16 03:55:43;;;;;;;3.55;2.75;;;14.80;77.10;;;;;;5013101;28;20046;-46
2022/11/16 03:58:23;;;;;;;2.83;2.53;;;14.80;77.10;;;;;;5011008;28;20053;-45
2022/11/16 04:01:05;;;;;;;3.15;2.55;;;14.80;77.10;;;;;;5021529;28;20522;-47
2022/11/16 04:03:48;;;;;;;3.00;2.08;;;14.80;77.20;;;;;;5022267;28;20513;-49
2022/11/16 04:29:50;;;;;;;1.33;1.17;;;14.90;77.10;;;;;;5012771;28;20038;-50
2022/11/16 04:37:47;;;;;;;1.48;0.95;;;14.90;77.00;;;;;;5030563;28;20045;-50
2022/11/16 04:38:15;;;;;;;2.75;1.38;;;14.90;77.00;;;;;;5039393;28;20499;-48
2022/11/16 04:40:50;;;;;;;1.80;1.20;;;14.90;76.80;;;;;;5013783;28;20061;-48
2022/11/16 04:43:25;;;;;;;1.35;1.00;;;14.90;76.90;;;;;;5010342;28;20046;-50
2022/11/16 04:49:10;;;;;;;3.10;1.33;;;14.90;76.80;;;;;;5016679;28;20057;-47
2022/11/16 04:51:53;;;;;;;2.25;1.45;;;14.80;76.60;;;;;;5020633;28;20029;-49
2022/11/16 04:54:24;;;;;;;1.45;1.20;;;14.90;76.60;;;;;;5010418;28;20383;-49
2022/11/16 04:57:15;;;;;;;3.10;1.40;;;14.80;77.10;;;;;;5005586;28;20843;-47
2022/11/16 04:59:53;;;;;;;3.50;1.55;;;14.80;76.50;;;;;;5027717;28;20052;-47
2022/11/16 05:02:25;;;;;;;2.47;1.55;;;14.80;76.60;;;;;;5007070;28;20050;-48
2022/11/16 05:05:13;;;;;;;1.77;1.42;;;14.80;76.80;;;;;;4989155;28;20050;-48
2022/11/16 05:08:25;;;;;;;;;;;;;;;;;;;;;
2022/11/16 05:11:03;;;;;;;3.28;1.70;;;14.80;77.20;;;;;;5015553;28;20136;-46
2022/11/16 05:14:00;;;;;;;3.70;1.65;;;14.80;76.70;;;;;;5027634;28;20050;-48
2022/11/16 05:16:43;;;;;;;2.28;2.05;;;14.80;76.60;;;;;;5024971;28;20057;-46
2022/11/16 05:22:09;;;;;;;2.55;2.35;;;14.80;76.60;;;;;;5025284;28;20501;-45
2022/11/16 05:24:39;;;;;;;3.00;1.98;;;14.80;76.60;;;;;;5026671;28;20045;-46
2022/11/16 05:27:30;;;;;;;2.33;2.00;;;14.80;76.50;;;;;;5034994;28;20041;-47
2022/11/16 05:30:21;;;;;;;3.00;2.05;;;14.80;76.50;;;;;;5022150;28;20478;-46
2022/11/16 05:33:05;;;;;;;6.38;2.53;;;14.80;76.30;;;;;;5029552;28;20045;-47
2022/11/16 05:35:38;;;;;;;3.35;2.47;;;14.80;76.80;;;;;;5040770;28;20034;-46
2022/11/16 05:38:20;;;;;;;3.05;2.63;;;14.70;75.80;;;;;;5022883;28;20056;-46
2022/11/16 05:40:59;;;;;;;5.07;2.47;;;14.60;75.70;;;;;;5026481;28;20074;-48
2022/11/16 05:43:33;;;;;;;4.97;2.67;;;14.60;75.60;;;;;;5008237;28;20129;-47
2022/11/16 05:46:22;;;;;;;4.50;2.22;;;14.50;75.50;;;;;;5015454;28;20140;-45
2022/11/16 05:49:08;;;;;;;6.88;2.55;;;14.50;75.60;;;;;;5021314;28;20517;-45
2022/11/16 05:51:46;;;;;;;4.72;2.63;;;14.40;75.50;;;;;;5020264;28;20092;-46
2022/11/16 05:54:23;;;;;;;3.67;2.38;;;14.30;75.50;;;;;;5002461;28;20038;-47
2022/11/16 05:57:03;;;;;;;4.40;2.78;;;14.30;75.50;;;;;;5020679;28;20045;-45
2022/11/16 05:59:34;;;;;;;6.10;3.25;;;14.20;75.50;;;;;;5039130;28;20047;-46
2022/11/16 06:02:16;;;;;;;4.60;3.20;;;14.20;75.60;;;;;;5022995;28;20045;-46
2022/11/16 06:04:55;;;;;;;4.93;2.67;;;14.10;75.60;;;;;;5014470;28;20679;-46
2022/11/16 06:07:24;;;;;;;3.70;3.00;;;14.00;75.70;;;;;;5021668;28;20045;-46
2022/11/16 06:09:54;;;;;;;4.05;2.00;;;14.00;75.80;;;;;;5042377;28;20065;-46
2022/11/16 06:12:34;;;;;;;4.32;3.42;;;13.90;75.80;;;;;;5011291;28;20077;-49
2022/11/16 06:15:17;;;;;;;5.65;3.30;;;13.90;76.20;;;;;;5013506;28;20046;-48
2022/11/16 06:17:47;;;;;;;6.70;3.80;;;13.80;76.50;;;;;;5021049;28;20141;-45
2022/11/16 06:20:23;;;;;;;5.40;3.55;;;13.80;76.60;;;;;;5027181;28;20388;-45
2022/11/16 06:23:04;;;;;;;4.00;3.08;;;13.80;76.60;;;;;;5029238;28;20068;-48
2022/11/16 06:25:38;;;;;;;;;;;13.80;76.50;;;;;;5012954;28;20037;-46
2022/11/16 06:28:13;;;;;;;5.68;2.92;;;13.80;76.80;;;;;;5009584;28;20401;-45
2022/11/16 06:30:49;;;;;;;9.18;2.50;;;13.80;76.50;;;;;;5006928;28;20049;-45
2022/11/16 06:33:24;;;;;;;5.93;3.13;;;13.80;76.80;;;;;;5033817;28;20037;-46
2022/11/16 06:35:57;;;;;;;4.78;2.20;;;13.80;76.80;;;;;;5036599;28;20484;-46
2022/11/16 06:38:27;;;;;;;5.07;2.13;;;13.80;76.80;;;;;;5026785;28;20042;-46
2022/11/16 06:41:13;;;;;;;3.60;1.48;;;13.80;76.50;;;;;;5017333;28;20042;-46
2022/11/16 06:43:56;;;;;;;4.30;1.70;;;13.80;76.00;;;;;;5036302;28;20064;-46
2022/11/16 06:46:31;;;;;;;2.90;1.73;;;13.80;75.50;;;;;;5006684;28;20515;-46
2022/11/16 06:49:05;;;;;;;3.38;2.00;;;13.70;75.30;;;;;;5033275;28;20053;-47
2022/11/16 06:51:36;;;;;;;5.55;2.30;;;13.70;75.20;;;;;;5014516;28;20441;-46
2022/11/16 06:54:25;;;;;;;3.58;1.25;;;13.60;75.10;;;;;;5013348;28;20038;-46
2022/11/16 06:56:56;;;;;;;3.38;1.85;;;13.60;74.90;;;;;;5013753;28;20457;-48
2022/11/16 06:59:31;;;;;;;6.53;2.65;;;13.60;74.80;;;;;;5022419;28;20064;-47
2022/11/16 07:02:29;;;;;;;5.60;2.17;;;13.50;74.80;;;;;;5021954;28;20502;-46
2022/11/16 07:05:13;;;;;;;4.72;2.35;;;13.50;74.70;;;;;;5033390;28;20053;-48
2022/11/16 07:07:58;;;;;;;5.63;2.53;;;13.40;74.70;;;;;;5034496;28;20053;-47
2022/11/16 07:10:28;;;;;;;6.10;3.38;;;13.30;74.60;;;;;;5014310;28;20091;-45
2022/11/16 07:13:24;;;;;;;4.72;2.50;;;13.20;74.60;;;;;;5022552;28;20042;-46
2022/11/16 07:16:03;;;;;;;6.65;2.70;;;13.20;74.70;;;;;;5033427;28;20560;-46
2022/11/16 07:18:40;;;;;;;7.10;3.03;;;13.20;74.80;;;;;;5020052;28;20033;-48
2022/11/16 07:21:21;;;;;;;8.57;2.97;;;13.10;74.80;;;;;;5022647;28;20089;-44
2022/11/16 07:24:00;;;;;;;8.60;3.15;;;13.10;75.10;;;;;;5014595;28;20093;-45
2022/11/16 07:26:49;;;;;;;7.20;2.90;;;13.00;74.90;;;;;;5035949;28;20132;-46
2022/11/16 07:29:30;;;;;;;5.80;2.95;;;13.00;75.10;;;;;;5015998;28;20100;-46
2022/11/16 07:32:40;;;;;;;5.13;2.40;;;13.00;75.10;;;;;;4970129;28;20049;-47
2022/11/16 07:35:24;;;;;;;4.55;2.30;;;12.90;75.10;;;;;;5014474;28;20045;-47
2022/11/16 07:37:59;;;;;;;6.03;2.55;;;12.90;75.10;;;;;;5029576;28;20053;-46
2022/11/16 07:40:47;;;;;;;4.22;2.40;;;12.80;75.20;;;;;;5022009;28;20069;-47
2022/11/16 07:43:33;;;;;;;8.38;2.67;;;12.80;75.30;;;;;;5032359;28;20045;-46
2022/11/16 07:46:28;;;;;;;4.75;2.03;;;12.80;75.30;;;;;;5005970;28;20092;-46
2022/11/16 07:49:19;;;;;;;5.78;2.33;;;12.80;75.40;;;;;;5026547;28;20087;-46
2022/11/16 07:52:09;;;;;;;4.25;1.88;;;12.80;75.40;;;;;;5033013;28;20045;-47
2022/11/16 07:55:00;;;;;;;5.50;2.35;;;12.70;75.30;;;;;;5031076;28;20053;-45
2022/11/16 07:57:50;;;;;;;3.72;1.60;;;12.70;75.30;;;;;;5015060;28;20049;-45
2022/11/16 08:00:26;;;;;;;4.80;1.77;;;12.70;75.30;;;;;;5008852;28;20062;-46
2022/11/16 08:03:05;;;;;;;5.22;1.67;;;12.70;75.40;;;;;;4992716;28;20051;-46
2022/11/16 08:05:40;;;;;;;5.63;1.80;;;12.70;75.30;;;;;;5030161;28;20577;-48
2022/11/16 08:08:10;;;;;;;6.38;2.03;;;12.70;75.40;;;;;;5026551;28;20121;-45
2022/11/16 08:10:51;;;;;;;7.88;1.98;;;12.70;75.60;;;;;;5026964;28;20050;-45
2022/11/16 08:13:32;;;;;;;2.20;1.70;;;12.70;75.50;;;;;;5024116;28;20052;-47
2022/11/16 08:16:13;;;;;;;7.20;2.20;;;12.70;75.60;;;;;;5021949;28;20045;-45
2022/11/16 08:18:50;;;;;;;3.38;1.55;;;12.70;75.70;;;;;;5042720;28;20045;-46
2022/11/16 08:21:26;;;;;;;2.65;1.45;;;12.70;75.70;;;;;;5033103;28;20465;-46
2022/11/16 08:24:01;;;;;;;3.05;1.80;;;12.70;75.90;;;;;;5009439;28;20100;-46
2022/11/16 08:26:37;;;;;;;5.55;2.10;;;12.70;76.10;;;;;;5011595;28;20045;-45
2022/11/16 08:29:19;;;;;;;3.80;2.20;;;12.80;76.20;;;;;;5023301;28;20053;-45
2022/11/16 08:31:51;;;;;;;5.95;1.92;;;12.80;76.10;;;;;;5031173;28;20045;-48
2022/11/16 08:34:26;;;;;;;5.95;1.85;;;12.80;75.90;;;;;;5023043;28;20061;-45
2022/11/16 08:37:03;;;;;;;5.53;1.75;;;12.90;76.00;;;;;;5021601;28;20038;-46
2022/11/16 08:39:42;;;;;;;5.15;1.83;;;12.90;76.00;;;;;;5031429;28;20067;-47
2022/11/16 08:42:31;;;;;;;4.50;1.85;;;13.00;76.10;;;;;;5017977;28;20046;-46
2022/11/16 08:45:03;;;;;;;5.25;2.05;;;13.10;76.10;;;;;;5025871;28;20049;-47
2022/11/16 08:47:37;;;;;;;6.28;1.60;;;13.10;75.90;;;;;;5018199;28;20421;-50
2022/11/16 08:50:10;;;;;;;4.60;1.42;;;13.20;75.80;;;;;;5011388;28;20042;-45
2022/11/16 08:52:51;;;;;;;5.40;1.85;;;13.30;75.90;;;;;;5017095;28;20132;-45
2022/11/16 08:55:20;;;;;;;7.20;2.10;;;13.30;76.00;;;;;;5014168;28;20077;-46
2022/11/16 08:58:05;;;;;;;2.78;1.55;;;13.40;76.00;;;;;;5027678;28;20466;-47
2022/11/16 09:00:34;;;;;;;5.35;1.90;;;13.40;75.90;;;;;;5011008;28;20132;-46
2022/11/16 09:03:06;;;;;;;6.35;1.60;;;13.50;75.80;;;;;;5025592;28;20486;-46
2022/11/16 09:05:37;;;;;;;3.05;1.40;;;13.60;75.70;;;;;;5023492;28;20045;-48
2022/11/16 09:08:23;;;;;;;3.83;1.63;;;13.70;75.50;;;;;;5032441;28;20067;-47
2022/11/16 09:10:51;;;;;;;2.90;1.75;;;13.80;75.40;;;;;;5028180;28;20486;-46
2022/11/16 09:13:29;;;;;;;2.88;1.50;;;13.80;75.10;;;;;;5016344;28;20065;-49
2022/11/16 09:16:02;;;;;;;4.13;2.15;;;13.90;74.70;;;;;;5023765;28;20485;-46
2022/11/16 09:18:48;;;;;;;6.00;1.60;;;14.00;74.30;;;;;;5032226;28;20124;-50
2022/11/16 09:21:25;;;;;;;3.95;1.40;;;14.00;74.10;;;;;;5023669;28;20046;-47
2022/11/16 09:23:58;;;;;;;5.63;1.85;;;14.10;73.60;;;;;;5020875;28;20125;-47
2022/11/16 09:26:39;;;;;;;3.28;1.25;;;14.20;73.30;;;;;;5012331;28;20048;-50
2022/11/16 09:29:12;;;;;;;3.72;1.38;;;14.20;72.70;;;;;;5018488;28;20046;-47
2022/11/16 09:31:55;;;;;;;4.38;1.30;;;14.20;72.40;;;;;;5015509;28;20048;-47
2022/11/16 09:34:26;;;;;;;6.25;1.33;;;14.20;72.10;;;;;;4992094;28;20096;-45
2022/11/16 09:37:08;;;;;;;4.35;1.23;;;14.20;72.10;;;;;;5015875;28;20053;-46
2022/11/16 09:39:50;;;;;;;3.20;1.50;;;14.20;72.00;;;;;;5012452;28;20145;-46
2022/11/16 09:42:50;;;;;;;6.32;1.63;;;14.20;71.80;;;;;;5017330;28;20045;-46
2022/11/16 09:45:58;;;;;;;4.32;1.25;;;14.20;71.50;;;;;;5031006;28;20452;-48
2022/11/16 09:48:40;;;;;;;3.97;1.45;;;14.20;71.00;;;;;;5015127;28;20495;-49
2022/11/16 09:51:15;;;;;;;3.70;1.17;;;14.20;71.60;;;;;;5020922;28;20096;-46
2022/11/16 09:54:13;;;;;;;6.35;0.85;;;14.20;71.40;;;;;;5014267;28;20041;-46
2022/11/16 09:56:56;;;;;;;2.08;0.85;;;14.20;71.00;;;;;;5016128;28;20121;-46
2022/11/16 09:59:34;;;;;;;4.18;0.93;;;14.20;70.80;;;;;;5024656;28;20084;-46
2022/11/16 10:02:34;;;;;;;5.65;1.23;;;14.20;70.40;;;;;;5020355;28;20139;-46
2022/11/16 10:05:37;;;;;;;3.00;1.60;;;14.10;70.40;;;;;;5029887;28;20082;-48
2022/11/16 10:08:33;;;;;;;4.90;1.00;;;14.20;69.70;;;;;;5026952;28;20057;-47
2022/11/16 10:11:35;;;;;;;2.78;1.05;;;14.10;70.30;;;;;;5027595;28;20037;-46
2022/11/16 10:14:47;;;;;;;;;;;;;;;;;;;;;
2022/11/16 10:17:35;;;;;;;1.73;0.90;;;14.10;69.80;;;;;;5023676;28;20594;-46
2022/11/16 10:20:36;;;;;;;2.60;0.90;;;14.10;70.10;;;;;;5021379;28;20048;-46
2022/11/16 10:23:37;;;;;;;3.95;0.93;;;14.00;69.80;;;;;;5024808;28;20052;-46
2022/11/16 10:26:15;;;;;;;2.03;1.05;;;14.00;70.10;;;;;;5031336;28;20562;-50
2022/11/16 10:29:29;;;;;;;3.65;1.05;;;14.00;70.20;;;;;;5029578;28;20037;-50
2022/11/16 10:32:38;;;;;;;3.92;1.40;;;14.00;69.60;;;;;;5037745;28;20042;-50
2022/11/16 10:35:32;;;;;;;3.17;1.08;;;14.00;69.80;;;;;;5026526;28;20088;-50
2022/11/16 10:38:21;;;;;;;2.90;0.93;;;14.10;69.50;;;;;;5027475;28;20057;-50
2022/11/16 10:41:01;;;;;;;4.15;1.10;;;14.00;69.90;;;;;;5032799;28;20056;-48
2022/11/16 10:43:40;;;;;;;6.15;0.90;;;14.00;69.90;;;;;;5037358;28;20476;-50
2022/11/16 10:46:49;;;;;;;4.18;1.40;;;14.10;70.00;;;;;;5029628;28;20052;-50
2022/11/16 10:49:35;;;;;;;6.82;0.82;;;14.10;70.00;;;;;;5008433;28;20140;-46
2022/11/16 10:52:11;;;;;;;;;;;14.10;69.60;;;;;;5023430;28;20100;-50
2022/11/16 10:54:43;;;;;;;2.35;1.20;;;14.20;69.90;;;;;;5020391;28;19936;-50
2022/11/16 10:57:16;;;;;;;5.00;1.17;;;14.20;69.70;;;;;;5028394;28;20037;-48
2022/11/16 10:59:52;;;;;;;1.80;0.88;;;14.20;69.50;;;;;;5031429;28;20072;-50
2022/11/16 11:02:33;;;;;;;7.38;2.38;;;14.20;69.00;;;;;;5036913;28;20056;-50
2022/11/16 11:05:29;;;;;;;5.97;1.10;;;14.20;68.40;;;;;;5034792;28;20057;-49
2022/11/16 11:08:06;;;;;;;4.78;1.30;;;14.20;68.80;;;;;;5037480;28;20047;-50
2022/11/16 11:10:47;;;;;;;2.72;0.73;;;14.30;68.90;;;;;;5036975;28;20422;-47
2022/11/16 11:13:25;;;;;;;2.33;1.05;;;14.30;68.80;;;;;;5013806;28;20506;-46
2022/11/16 11:16:16;;;;;;;4.07;0.80;;;14.30;68.60;;;;;;5029020;28;20092;-48
2022/11/16 11:19:00;;;;;;;3.42;1.50;;;14.40;68.10;;;;;;5041817;28;20045;-46
2022/11/16 11:21:30;;;;;;;6.63;1.83;;;14.40;68.50;;;;;;5034223;28;20068;-49
2022/11/16 11:24:04;;;;;;;3.30;0.80;;;14.40;68.40;;;;;;5032895;28;20409;-45
2022/11/16 11:26:58;;;;;;;3.30;0.90;;;14.50;68.20;;;;;;5028140;28;20049;-49
2022/11/16 11:29:33;;;;;;;2.85;0.80;;;14.50;67.80;;;;;;5037126;28;20736;-46
2022/11/16 11:32:16;;;;;;;3.50;0.70;;;14.50;68.00;;;;;;5032203;28;20120;-49
2022/11/16 11:34:58;;;;;;;3.38;0.90;;;14.50;67.20;;;;;;5020848;28;20038;-49
2022/11/16 11:37:32;;;;;;;5.45;1.10;;;14.50;67.50;;;;;;4994813;28;20050;-47
2022/11/16 11:40:40;;;;;;;2.30;1.00;;;14.60;67.90;;;;;;4994752;28;20050;-50
2022/11/16 11:43:24;;;;;;;4.63;1.15;;;14.60;66.80;;;;;;5016533;28;20116;-48
2022/11/16 11:46:07;;;;;;;3.13;0.60;;;14.60;68.10;;;;;;5025069;28;20052;-49
2022/11/16 11:48:52;;;;;;;1.73;0.70;;;14.70;67.10;;;;;;5032804;28;20087;-46
2022/11/16 11:51:37;;;;;;;3.55;0.60;;;14.70;66.90;;;;;;5023860;28;20534;-50
2022/11/16 11:54:35;;;;;;;6.07;1.70;;;14.80;67.30;;;;;;5009738;28;20466;-50
2022/11/16 11:57:22;;;;;;;3.55;1.10;;;14.80;66.90;;;;;;5012494;28;20042;-46
2022/11/16 11:59:51;;;;;;;4.32;1.38;;;14.90;67.30;;;;;;5012522;28;20586;-46
2022/11/16 12:02:41;;;;;;;2.17;0.73;;;15.00;67.50;;;;;;5027545;28;20045;-49
2022/11/16 12:05:44;;;;;;;3.55;0.70;;;15.10;66.60;;;;;;5030863;28;20052;-50
2022/11/16 12:08:13;;;;;;;1.42;0.90;;;15.30;65.80;;;;;;5032764;28;20049;-46
2022/11/16 12:11:09;;;;;;;2.65;0.70;;;15.30;66.50;;;;;;5020904;28;20619;-48
2022/11/16 12:14:07;;;;;;;3.42;0.82;;;15.40;65.60;;;;;;5014804;28;20538;-46
2022/11/16 12:16:50;;;;;;;4.20;0.80;;;15.60;65.00;;;;;;5014446;28;20053;-48
2022/11/16 12:19:56;;;;;;;3.60;0.80;;;15.60;65.40;;;;;;5018680;28;20047;-45
2022/11/16 12:22:58;;;;;;;2.28;0.82;;;15.70;64.60;;;;;;5013471;28;20534;-49
2022/11/16 12:25:42;;;;;;;4.20;1.25;;;15.70;63.60;;;;;;5017819;28;20044;-47
2022/11/16 12:28:33;;;;;;;2.10;0.65;;;15.80;63.90;;;;;;5026149;28;20057;-46
2022/11/16 12:31:43;;;;;;;3.58;0.80;;;15.80;64.40;;;;;;5023533;28;20563;-47
2022/11/16 12:34:37;;;;;;;5.75;0.90;;;15.90;64.00;;;;;;5007909;28;20136;-47
2022/11/16 12:37:38;;;;;;;1.88;0.60;;;15.90;63.60;;;;;;5016029;28;20796;-50
2022/11/16 12:40:30;;;;;;;;;;;16.00;63.60;;;;;;5022993;28;20087;-50
2022/11/16 12:43:50;;;;;;;3.13;1.40;;;16.10;65.00;;;;;;5029024;28;19925;-49
2022/11/16 12:46:55;;;;;;;3.72;1.13;;;16.10;64.10;;;;;;5029743;28;20038;-49
2022/11/16 12:49:58;;;;;;;1.95;0.80;;;16.20;64.20;;;;;;4992914;28;20057;-49
2022/11/16 12:52:44;;;;;;;1.15;0.47;;;16.30;63.10;;;;;;5016028;28;20038;-50
2022/11/16 12:55:50;;;;;;;3.80;0.98;;;16.30;62.20;;;;;;5016523;28;20103;-49
2022/11/16 12:58:32;;;;;;;3.90;0.80;;;16.30;61.80;;;;;;5022303;28;20040;-47
2022/11/16 13:01:39;;;;;;;2.13;0.70;;;16.40;63.10;;;;;;5027773;28;20418;-49
2022/11/16 13:04:46;;;;;;;2.22;0.50;;;16.40;62.20;;;;;;5024536;28;20510;-50
2022/11/16 13:07:28;;;;;;;2.53;0.52;;;16.40;62.00;;;;;;5022004;28;20100;-49
2022/11/16 13:10:21;;;;;;;2.92;0.90;;;16.50;61.90;;;;;;5024043;28;20048;-50
2022/11/16 13:13:15;;;;;;;3.03;0.68;;;16.50;62.30;;;;;;5031232;28;20049;-47
2022/11/16 13:16:08;;;;;;;2.05;0.90;;;16.60;61.90;;;;;;5027216;28;20049;-49
2022/11/16 13:18:40;;;;;;;1.25;0.47;;;16.70;61.60;;;;;;5017882;28;20433;-50
2022/11/16 13:21:20;;;;;;;1.65;0.60;;;16.70;61.60;;;;;;5031547;28;20096;-49
2022/11/16 13:24:23;;;;;;;2.75;0.52;;;16.70;61.30;;;;;;5020578;28;20038;-50
2022/11/16 13:27:16;;;;;;;1.67;0.70;;;16.80;60.90;;;;;;5016020;28;20556;-49
2022/11/16 13:29:52;;;;;;;1.95;1.10;;;16.80;60.80;;;;;;5021470;28;20084;-50
2022/11/16 13:32:30;;;;;;;5.05;0.70;;;16.80;61.20;;;;;;5027983;28;20084;-46
2022/11/16 13:35:02;;;;;;;3.58;1.25;;;16.80;60.70;;;;;;5023406;28;20054;-50
2022/11/16 13:37:46;;;;;;;2.22;1.35;;;16.70;60.70;;;;;;5016769;28;20041;-46
2022/11/16 13:40:28;;;;;;;3.13;0.80;;;16.70;60.40;;;;;;5028057;28;20564;-47
2022/11/16 13:43:09;;;;;;;1.27;0.80;;;16.70;60.20;;;;;;5021376;28;20046;-47
2022/11/16 13:45:48;;;;;;;2.85;0.60;;;16.60;60.50;;;;;;5038204;22;20633;-47
2022/11/16 13:48:47;;;;;;;;;;;;;;;;;;;;;
2022/11/16 13:51:20;;;;;;;2.03;1.00;;;16.60;59.80;;;;;;5016806;28;20517;-51
2022/11/16 13:53:53;;;;;;;2.78;0.65;;;16.50;60.20;;;;;;5011736;28;20126;-48
2022/11/16 13:56:50;;;;;;;1.58;0.80;;;16.40;60.20;;;;;;5019561;28;20041;-46
2022/11/16 13:59:36;;;;;;;0.90;0.52;;;16.40;60.60;;;;;;5022640;28;20516;-47
2022/11/16 14:02:28;;;;;;;2.25;0.80;;;16.40;60.30;;;;;;5026025;28;20220;-47
2022/11/16 14:05:40;;;;;;;2.63;0.55;;;16.40;59.80;;;;;;5019479;28;20116;-47
2022/11/16 14:08:19;;;;;;;1.67;0.63;;;16.40;59.60;;;;;;5031437;28;20049;-48
2022/11/16 14:10:49;;;;;;;6.38;0.90;;;16.30;60.10;;;;;;5025836;28;20060;-46
2022/11/16 14:13:41;;;;;;;2.97;0.70;;;16.30;60.60;;;;;;5026668;28;20056;-47
2022/11/16 14:16:21;;;;;;;2.55;0.55;;;16.30;60.10;;;;;;5011534;28;20045;-47
2022/11/16 14:19:04;;;;;;;2.70;0.82;;;16.30;60.70;;;;;;5011474;28;20117;-46
2022/11/16 14:21:55;;;;;;;7.38;1.83;;;16.30;60.90;;;;;;5020550;28;20033;-47
2022/11/16 14:25:06;;;;;;;2.80;0.60;;;16.20;60.60;;;;;;5021430;28;20045;-47
2022/11/16 14:27:54;;;;;;;;;;;16.20;61.00;;;;;;4985423;28;20050;-49
2022/11/16 14:30:28;;;;;;;0.57;0.40;;;16.30;61.30;;;;;;5016365;28;19921;-47
2022/11/16 14:32:57;;;;;;;2.45;0.70;;;16.20;61.20;;;;;;5022527;28;20045;-47
2022/11/16 14:35:47;;;;;;;5.40;0.88;;;16.20;61.30;;;;;;5030880;28;20050;-47
2022/11/16 14:38:25;;;;;;;2.25;1.13;;;16.10;61.00;;;;;;5018978;28;20124;-48
2022/11/16 14:41:19;;;;;;;2.40;0.60;;;16.10;60.90;;;;;;5016743;28;20422;-46
2022/11/16 14:44:13;;;;;;;3.17;0.90;;;16.10;61.50;;;;;;5016156;28;20049;-47
2022/11/16 14:46:45;;;;;;;1.70;0.85;;;16.00;61.50;;;;;;5010786;28;20576;-46
2022/11/16 14:49:16;;;;;;;2.72;1.83;;;16.00;61.80;;;;;;5019098;28;20041;-47
2022/11/16 14:51:55;;;;;;;2.03;1.63;;;15.90;62.10;;;;;;5022353;28;20054;-47
2022/11/16 14:54:47;;;;;;;2.63;2.00;;;15.90;62.20;;;;;;5011012;28;20042;-47